Stanhope, Pennsylvania
Current Conditions -  °F | °C
As of 1:58 PM on Tuesday 21 Oct 2014 (Local Time) from KMUI Reporting Station
Overcast Overcast  
Wind Chill: 60°   Ceiling: 4400
Heat Index: 60°   Visibility: 10mi
Dew Point: 53°   Wind: 5mph
Humidity: 78%   Direction: 320°NW
Pressure: 29.84"   Gusts: NA
Location:  40.5592°N, 76.3347°W
Report Text: KMUI 211758Z AUTO 32004KT 10SM FEW028 OVC044 16/12 A2984 RMK AO2 SLP108 T01580119 10166 20081 57014 $
Loading
Personal Weather Stations






























Interactive Weather Map
Tropical Storm Tracking
New forecast layout! Learn more

10-Day Weather Forecast

Advertisements
Track Severe Weather on mobile